METAR Data
IDs: Format: Raw Decoded Include TAF

Data at: 2108 UTC 17 Nov 2018

KERV 172055Z AUTO 18010KT 10SM BKN037 21/12 A3005 RMK AO2 T02050122
KERV 172035Z AUTO 19010KT 10SM BKN035 BKN042 21/12 A3005 RMK AO2 T02120122
KERV 172015Z AUTO 20012KT 10SM BKN035 21/12 A3005 RMK AO2 T02050120
KERV 171955Z AUTO 17012G16KT 10SM OVC033 19/12 A3006 RMK AO2 T01930120
KERV 171935Z AUTO 19013G19KT 10SM OVC033 21/12 A3006 RMK AO2 T02050120
KERV 171915Z AUTO 19012KT 10SM BKN033 21/12 A3007 RMK AO2 T02050123
KERV 171855Z AUTO 18014G20KT 10SM SCT031 21/12 A3008 RMK AO2 T02050122
KERV 171835Z AUTO 18013G20KT 10SM BKN029 21/12 A3009 RMK AO2 T02050119
KERV 171815Z AUTO 18012KT 10SM BKN027 BKN032 19/12 A3011 RMK AO2 T01900121
KERV 171755Z AUTO 18014G17KT 10SM BKN027 BKN032 20/12 A3012 RMK AO2 T01960121 10196 20057
KERV 171735Z AUTO 17014G18KT 10SM BKN023 19/12 A3012 RMK AO2 T01900123
KERV 171715Z AUTO 18009G16KT 10SM BKN019 BKN024 18/12 A3013 RMK AO2 T01760121

KT82 172055Z AUTO 21009KT 10SM BKN037 19/10 A3005 RMK AO2 T01940101
KT82 172035Z AUTO 21012G15KT 10SM BKN037 20/10 A3005 RMK AO2 T02040101
KT82 172015Z AUTO 21011G16KT 10SM BKN035 21/10 A3005 RMK AO2 T02050101
KT82 171955Z AUTO 18012KT 10SM SCT035 20/10 A3005 RMK AO2 T01990104
KT82 171935Z AUTO 21014G18KT 10SM SCT035 20/10 A3006 RMK AO2 T02000100
KT82 171915Z AUTO 22012KT 10SM SCT035 20/10 A3006 RMK AO2 T02010100
KT82 171855Z AUTO 20011KT 10SM BKN033 20/10 A3008 RMK AO2 T01970101
KT82 171835Z AUTO 19013G16KT 10SM SCT031 19/11 A3009 RMK AO2 T01930105
KT82 171815Z AUTO 22012G16KT 10SM SCT031 19/10 A3010 RMK AO2 T01880101
KT82 171755Z AUTO 21012G17KT 10SM CLR 19/10 A3010 RMK AO2 T01910102 10191 20092
KT82 171735Z AUTO 20013G17KT 10SM CLR 18/10 A3011 RMK AO2 T01830100
KT82 171715Z AUTO 21011G18KT 10SM CLR 17/10 A3011 RMK AO2 T01730104

KJCT 172051Z AUTO 19009KT 10SM CLR 22/10 A3001 RMK AO2 SLP143 T02220100 56023
KJCT 171951Z AUTO 20008KT 10SM CLR 22/09 A3002 RMK AO2 SLP146 T02220094
KJCT 171851Z AUTO 21009KT 180V250 10SM CLR 22/10 A3005 RMK AO2 SLP155 T02170100
KJCT 171751Z AUTO 20010G17KT 10SM CLR 20/10 A3008 RMK AO2 SLP167 T02000100 10206 20006 58015

K5C1 172055Z AUTO 20007G14KT 150V230 10SM BKN027 BKN032 20/12 A3006 RMK AO1
K5C1 172035Z AUTO 20009G16KT 10SM BKN029 BKN034 19/12 A3006 RMK AO1
K5C1 172015Z AUTO 20010G16KT 10SM BKN031 20/12 A3006 RMK AO1
K5C1 171955Z AUTO 20012KT 10SM SCT033 BKN045 20/12 A3006 RMK AO1
K5C1 171935Z AUTO 20012KT 10SM SCT030 SCT037 OVC043 20/12 A3007 RMK AO1
K5C1 171915Z AUTO 20009G15KT 10SM BKN032 OVC037 18/12 A3008 RMK AO1
K5C1 171855Z AUTO 21011G15KT 10SM BKN030 BKN036 19/11 A3009 RMK AO1
K5C1 171835Z AUTO 18009G17KT 10SM BKN028 BKN036 19/11 A3010 RMK AO1
K5C1 171815Z AUTO 21008KT 10SM BKN025 OVC031 17/12 A3012 RMK AO1
K5C1 171755Z AUTO 21010G16KT 10SM OVC023 17/12 A3013 RMK AO1
K5C1 171735Z AUTO 19010KT 10SM BKN021 OVC026 18/12 A3013 RMK AO1
K5C1 171715Z AUTO 19012G15KT 10SM BKN023 17/12 A3014 RMK AO1

KHDO 172051Z AUTO 15008KT 10SM BKN028 BKN035 OVC048 22/14 A3004 RMK AO2 SLP165 T02170144 56022
KHDO 171951Z AUTO 18013KT 10SM BKN034 BKN042 OVC049 23/14 A3005 RMK AO2 SLP168 T02280144
KHDO 171851Z AUTO 19011KT 10SM BKN036 BKN044 23/13 A3007 RMK AO2 SLP176 T02280133
KHDO 171751Z AUTO 20008KT 10SM SCT027 22/13 A3011 RMK AO2 SLP188 T02170133 10222 20056 58010

KUVA 172055Z AUTO 16009KT 10SM SCT032 OVC044 21/14 A3004 RMK AO2 T02100137
KUVA 172035Z AUTO 16010G18KT 10SM SCT032 OVC043 21/14 A3004 RMK AO2 T02060137
KUVA 172015Z AUTO 17006KT 10SM SCT032 OVC039 20/14 A3005 RMK AO2 T02020137
KUVA 171955Z AUTO 17010KT 10SM SCT032 OVC041 21/13 A3005 RMK AO2 T02050134
KUVA 171935Z AUTO 17011KT 10SM SCT030 OVC041 21/14 A3005 RMK AO2 T02050135
KUVA 171915Z AUTO 15009G14KT 10SM BKN032 BKN037 21/14 A3006 RMK AO2 T02080136
KUVA 171855Z AUTO 17009KT 10SM BKN034 OVC040 20/13 A3008 RMK AO2 T02020132
KUVA 171835Z AUTO 19009KT 10SM SCT032 BKN038 20/13 A3009 RMK AO2 T02030127
KUVA 171815Z AUTO 21011KT 10SM BKN032 21/13 A3010 RMK AO2 T02090133
KUVA 171755Z AUTO 16012G19KT 10SM SCT029 SCT035 20/13 A3011 RMK AO2 T02030128 10203 20074
KUVA 171735Z AUTO 18009KT 10SM SCT025 19/13 A3012 RMK AO2 T01910129
KUVA 171715Z AUTO 17010KT 10SM SCT022 19/13 A3013 RMK AO2 T01900131

KSAT 172051Z 20009KT 10SM BKN029 OVC038 20/13 A3005 RMK AO2 SLP166 T02000133 56020
KSAT 171951Z 19010G20KT 10SM BKN036 BKN060 21/13 A3006 RMK AO2 SLP170 T02060128
KSAT 171851Z 21010KT 10SM SCT036 BKN050 BKN250 22/12 A3008 RMK AO2 SLP175 T02170117
KSAT 171751Z 19010KT 10SM FEW025 SCT250 21/13 A3011 RMK AO2 SLP186 T02060128 10211 20061 58010

KDWH 172053Z VRB04KT 10SM FEW060 22/12 A3009 RMK AO2 SLP188 T02220117 56021
KDWH 171953Z 17005KT 10SM OVC050 22/11 A3011 RMK AO2 SLP193 T02170111
KDWH 171853Z 12005KT 10SM SCT044 22/11 A3012 RMK AO2 SLP198 T02220106
KDWH 171753Z VRB06KT 10SM CLR 21/11 A3015 RMK AO2 SLP209 T02060111 10211 20072 58015

KUXL 172055Z AUTO 17004KT 10SM CLR 21/09 A3015 RMK AO2 T02100091
KUXL 172035Z AUTO 16007KT 10SM CLR 21/10 A3015 RMK AO2 T02140102
KUXL 172015Z AUTO 17007KT 10SM CLR 21/11 A3016 RMK AO2 T02080106
KUXL 171955Z AUTO 12005KT 10SM CLR 21/11 A3016 RMK AO2 T02060107
KUXL 171935Z AUTO 09005KT 10SM CLR 20/11 A3017 RMK AO2 T02020110
KUXL 171915Z AUTO 12005KT 10SM CLR 21/11 A3017 RMK AO2 T02070112
KUXL 171855Z AUTO 00000KT 10SM CLR 21/11 A3019 RMK AO2 T02080106
KUXL 171835Z AUTO 12006KT 10SM SCT055 20/11 A3019 RMK AO2 T02030107
KUXL 171815Z AUTO 13006KT 10SM SCT055 20/11 A3021 RMK AO2 T02000111
KUXL 171755Z AUTO 13007KT 10SM CLR 20/11 A3021 RMK AO2 T01970111 10201 20095
KUXL 171735Z AUTO 14005KT 10SM SCT043 BKN049 20/12 A3022 RMK AO2 T01970115
KUXL 171715Z AUTO 12005KT 10SM BKN046 19/11 A3023 RMK AO2 T01930109

KAPS 172055Z AUTO 08003KT 10SM CLR 18/06 A3019 RMK AO2 T01820057
KAPS 172035Z AUTO 10004KT 10SM CLR 18/06 A3019 RMK AO2 T01840057
KAPS 172015Z AUTO 14004KT 10SM CLR 19/06 A3019 RMK AO2 T01870058
KAPS 171955Z AUTO 15005KT 10SM CLR 19/06 A3019 RMK AO2 T01940062
KAPS 171935Z AUTO 15005KT 10SM CLR 20/06 A3020 RMK AO2 T01960058
KAPS 171915Z AUTO 15003KT 10SM CLR 20/02 A3021 RMK AO2 T02020017
KAPS 171855Z AUTO 20004KT 10SM CLR 21/02 A3021 RMK AO2 T02060017
KAPS 171835Z AUTO 16003KT 10SM CLR 20/03 A3022 RMK AO2 T02030026
KAPS 171815Z AUTO 14003KT 10SM CLR 20/04 A3022 RMK AO2 T01950042
KAPS 171755Z AUTO 00000KT 10SM CLR 20/04 A3024 RMK AO2 T01960041 10197 20041
KAPS 171735Z AUTO 14003KT 10SM CLR 19/04 A3025 RMK AO2 T01890043
KAPS 171715Z AUTO 15004KT 10SM CLR 19/04 A3026 RMK AO2 T01850040

KJKA 172055Z AUTO 16003KT 10SM CLR 18/06 A3019 RMK AO2 T01750061
KJKA 172035Z AUTO 15004KT 10SM CLR 18/06 A3019 RMK AO2 T01780064
KJKA 172015Z AUTO 13005KT 10SM CLR 18/06 A3019 RMK AO2 T01780056
KJKA 171955Z AUTO 16006KT 10SM CLR 18/06 A3020 RMK AO2 T01810055
KJKA 171935Z AUTO 14006KT 10SM CLR 19/05 A3021 RMK AO2 T01860050
KJKA 171915Z AUTO 14006KT 10SM CLR 19/04 A3021 RMK AO2 T01850038
KJKA 171855Z AUTO 13007KT 10SM CLR 19/03 A3021 RMK AO2 T01860032
KJKA 171835Z AUTO 15005KT 10SM CLR 19/04 A3022 RMK AO2 T01910040
KJKA 171815Z AUTO 23004KT 10SM CLR 18/04 A3023 RMK AO2 T01830042
KJKA 171755Z AUTO 07003KT 10SM CLR 18/04 A3024 RMK AO2 T01780043 10185 20021
KJKA 171735Z AUTO 12003KT 10SM CLR 18/04 A3025 RMK AO2 T01840044
KJKA 171715Z AUTO 07004KT 10SM CLR 18/04 A3025 RMK AO2 T01770043